Time;durP1;ratioP1;P1;durP2;ratioP2;P2;SDS_P1;SDS_P2;PMS_P1;PMS_P2;Temp;Humidity;BMP_temperature;BMP_pressure;BME280_temperature;BME280_humidity;BME280_pressure;Samples;Min_cycle;Max_cycle;Signal;HPM_P1;HPM_P2
2021/05/21 03:09:59;;;;;;;18.15;13.75;;;;;;;12.91;100.00;100935.14;1862514;76;25871;-71
2021/05/21 03:12:33;;;;;;;13.35;10.05;;;;;;;12.89;100.00;100945.73;1804618;79;21187;-70
2021/05/21 03:15:08;;;;;;;8.28;7.12;;;;;;;12.94;100.00;100940.73;1800221;79;21340;-69
2021/05/21 03:17:42;;;;;;;6.67;5.62;;;;;;;13.03;100.00;100931.63;1788535;79;21232;-70
2021/05/21 03:20:15;;;;;;;7.83;4.55;;;;;;;13.13;100.00;100943.38;1801054;79;21846;-70
2021/05/21 03:22:48;;;;;;;7.83;4.15;;;;;;;13.25;100.00;100942.60;1805996;79;21313;-72
2021/05/21 03:25:21;;;;;;;6.50;3.75;;;;;;;13.36;100.00;100942.39;1820177;78;21182;-69
2021/05/21 03:27:54;;;;;;;5.72;3.52;;;;;;;13.49;100.00;100952.19;1817059;77;21232;-69
2021/05/21 03:30:26;;;;;;;5.58;3.58;;;;;;;13.60;100.00;100946.94;1788050;80;21209;-69
2021/05/21 03:32:59;;;;;;;6.33;3.52;;;;;;;13.74;100.00;100953.12;1809815;79;21332;-70
2021/05/21 03:35:32;;;;;;;5.90;3.10;;;;;;;13.85;99.67;100954.83;1820234;79;21379;-68
2021/05/21 03:38:06;;;;;;;4.37;3.30;;;;;;;13.96;99.07;100952.89;1820270;79;21328;-70
2021/05/21 03:40:40;;;;;;;4.87;3.87;;;;;;;14.08;98.78;100966.88;1820204;79;21417;-70
2021/05/21 03:43:13;;;;;;;4.37;3.25;;;;;;;14.24;98.37;100969.99;1809820;79;21826;-69
2021/05/21 03:45:45;;;;;;;5.55;3.02;;;;;;;14.31;97.70;100959.37;1787828;80;21241;-70
2021/05/21 03:48:18;;;;;;;7.78;4.03;;;;;;;14.39;97.24;100964.98;1788057;79;21734;-70
2021/05/21 03:50:51;;;;;;;4.08;3.00;;;;;;;14.46;96.40;100976.71;1801854;79;21392;-69
2021/05/21 03:53:23;;;;;;;4.17;2.50;;;;;;;14.47;95.68;100978.38;1788080;80;21316;-69
2021/05/21 03:55:56;;;;;;;6.67;2.70;;;;;;;14.47;95.26;100986.22;1787775;80;21313;-70
2021/05/21 03:58:29;;;;;;;4.33;2.70;;;;;;;14.48;95.03;100989.28;1794033;79;21438;-69
2021/05/21 04:01:03;;;;;;;4.58;2.98;;;;;;;14.52;94.73;100983.97;1814390;78;21155;-72
2021/05/21 04:03:36;;;;;;;4.72;2.77;;;;;;;14.53;94.21;100988.44;1794364;79;21313;-71
2021/05/21 04:06:09;;;;;;;4.47;2.75;;;;;;;14.53;93.97;100991.23;1797654;79;21691;-73
2021/05/21 04:08:42;;;;;;;3.12;2.75;;;;;;;14.51;93.62;100991.54;1794561;79;21182;-71
2021/05/21 04:11:15;;;;;;;4.28;3.08;;;;;;;14.53;93.39;100992.63;1803536;79;21403;-70
2021/05/21 04:13:49;;;;;;;3.25;2.60;;;;;;;14.56;93.20;100992.95;1795587;78;21195;-69
2021/05/21 04:16:21;;;;;;;4.10;2.90;;;;;;;14.54;92.36;101004.12;1791371;79;21182;-70
2021/05/21 04:18:54;;;;;;;4.47;1.93;;;;;;;14.54;92.36;101004.12;1794236;79;21311;-71
2021/05/21 04:21:27;;;;;;;5.22;2.58;;;;;;;14.53;92.34;100998.22;1794397;79;22044;-70
2021/05/21 04:23:59;;;;;;;6.23;2.67;;;;;;;14.51;92.24;101010.25;1778331;79;21166;-70
2021/05/21 04:26:32;;;;;;;6.00;3.05;;;;;;;14.53;92.32;101009.40;1782120;79;21378;-69
2021/05/21 04:29:05;;;;;;;4.40;3.05;;;;;;;14.56;92.21;101006.92;1788968;78;21176;-69
2021/05/21 04:31:37;;;;;;;3.12;2.30;;;;;;;14.61;92.06;101016.67;1791727;79;21327;-69
2021/05/21 04:34:10;;;;;;;3.95;3.10;;;;;;;14.61;91.60;101015.27;1782336;79;21313;-71
2021/05/21 04:36:42;;;;;;;3.33;3.00;;;;;;;14.61;91.43;101011.66;1772291;79;21313;-71
2021/05/21 04:39:15;;;;;;;4.00;3.22;;;;;;;14.62;91.25;101026.77;1773565;81;21684;-74
2021/05/21 04:41:47;;;;;;;4.47;2.75;;;;;;;14.60;91.08;101027.58;1790939;79;21244;-75
2021/05/21 04:44:20;;;;;;;4.37;3.42;;;;;;;14.60;91.15;101034.56;1801717;79;21235;-75
2021/05/21 04:46:54;;;;;;;5.00;3.12;;;;;;;14.62;91.21;101035.69;1781615;79;21265;-74
2021/05/21 04:49:33;;;;;;;8.00;3.95;;;;;;;14.65;91.08;101041.56;1790964;79;21183;-74
2021/05/21 04:52:10;;;;;;;6.00;3.85;;;;;;;14.68;90.77;101041.02;1805500;79;21317;-74
2021/05/21 04:54:43;;;;;;;3.70;3.35;;;;;;;14.68;90.77;101041.02;1773950;81;21794;-71
2021/05/21 04:57:16;;;;;;;6.37;4.05;;;;;;;14.68;90.65;101039.63;1773963;81;21712;-72
2021/05/21 04:59:48;;;;;;;3.87;3.45;;;;;;;14.69;90.70;101041.30;1773407;81;21353;-70
2021/05/21 05:02:20;;;;;;;6.53;2.90;;;;;;;14.75;90.81;101058.34;1773444;81;21187;-70
2021/05/21 05:04:54;;;;;;;5.22;2.87;;;;;;;14.80;90.72;101051.34;1781951;79;21766;-71
2021/05/21 05:07:26;;;;;;;4.33;2.92;;;;;;;14.85;90.40;101059.73;1791781;79;21620;-70
2021/05/21 05:09:59;;;;;;;4.08;3.17;;;;;;;14.90;90.42;101062.53;1789795;79;21371;-74
2021/05/21 05:12:32;;;;;;;6.53;3.23;;;;;;;14.92;89.97;101067.27;1805510;79;21855;-71
2021/05/21 05:15:07;;;;;;;4.80;3.08;;;;;;;14.92;89.94;101074.27;1805474;79;21376;-79
2021/05/21 05:17:39;;;;;;;3.50;3.08;;;;;;;14.92;89.82;101081.25;1800633;79;21317;-70
2021/05/21 05:20:13;;;;;;;3.45;2.70;;;;;;;14.88;89.89;101091.34;1790838;79;21317;-70
2021/05/21 05:22:46;;;;;;;8.30;3.55;;;;;;;14.88;89.89;101091.34;1784314;79;21830;-70
2021/05/21 05:25:18;;;;;;;3.70;2.83;;;;;;;14.88;89.98;101094.14;1792458;79;21919;-70
2021/05/21 05:27:55;;;;;;;3.87;2.90;;;;;;;14.88;89.96;101090.48;1773720;81;21701;-71
2021/05/21 05:30:27;;;;;;;8.70;3.10;;;;;;;14.86;89.94;101094.95;1773605;81;21838;-71
2021/05/21 05:32:59;;;;;;;4.90;3.40;;;;;;;14.83;89.88;101098.32;1773746;81;21725;-70
2021/05/21 05:35:33;;;;;;;8.50;2.75;;;;;;;14.81;90.16;101103.36;1773753;81;21240;-70
2021/05/21 05:38:06;;;;;;;6.85;3.55;;;;;;;14.82;90.30;101102.78;1773819;81;21370;-70
2021/05/21 05:40:38;;;;;;;5.30;3.08;;;;;;;14.82;90.48;101105.58;1774054;81;21228;-69
2021/05/21 05:43:11;;;;;;;7.37;3.70;;;;;;;14.82;90.56;101112.03;1774002;81;21169;-70
2021/05/21 05:45:45;;;;;;;4.37;3.30;;;;;;;14.84;90.81;101107.56;1773641;81;21389;-71
2021/05/21 05:48:19;;;;;;;6.03;3.22;;;;;;;14.84;90.81;101107.56;1773748;81;21199;-72
2021/05/21 05:50:51;;;;;;;4.90;3.17;;;;;;;14.88;91.02;101112.86;1773910;81;21196;-71
2021/05/21 05:53:24;;;;;;;6.37;4.30;;;;;;;14.90;91.04;101110.06;1773861;81;21239;-70
2021/05/21 05:55:57;;;;;;;5.47;3.25;;;;;;;14.93;91.01;101119.86;1773897;81;21323;-72
2021/05/21 05:58:29;;;;;;;9.08;3.95;;;;;;;14.90;90.84;101111.47;1773857;81;21309;-70
2021/05/21 06:01:02;;;;;;;7.33;4.00;;;;;;;14.93;91.05;101112.87;1773733;81;21338;-70
2021/05/21 06:03:35;;;;;;;6.65;4.42;;;;;;;14.98;90.94;101119.29;1773869;79;21212;-72
2021/05/21 06:06:08;;;;;;;5.95;3.80;;;;;;;15.03;91.03;101117.08;1773874;81;21197;-72
2021/05/21 06:08:42;;;;;;;4.53;3.08;;;;;;;15.07;91.04;101127.97;1772255;81;21242;-72
2021/05/21 06:11:15;;;;;;;8.38;3.30;;;;;;;15.10;91.01;101137.21;1773738;80;21188;-69
2021/05/21 06:13:47;;;;;;;7.22;3.33;;;;;;;15.07;90.17;101141.41;1774234;81;22009;-72
2021/05/21 06:16:20;;;;;;;8.97;4.03;;;;;;;14.99;90.15;101144.77;1773927;81;21323;-70
2021/05/21 06:18:53;;;;;;;3.00;2.30;;;;;;;14.93;89.85;101147.27;1773921;81;21244;-71
2021/05/21 06:21:26;;;;;;;8.10;2.67;;;;;;;14.89;90.26;101151.73;1773941;79;21733;-69
2021/05/21 06:23:58;;;;;;;3.45;2.92;;;;;;;14.90;90.13;101154.80;1773957;81;21322;-71
2021/05/21 06:26:42;;;;;;;5.47;2.40;;;;;;;14.92;90.00;101162.34;1772253;81;21208;-71
2021/05/21 06:29:12;;;;;;;5.47;2.50;;;;;;;14.91;88.75;101159.28;1779898;79;21297;-68
2021/05/21 06:31:51;;;;;;;4.20;2.02;;;;;;;14.81;87.71;101157.88;1788278;79;21175;-66
2021/05/21 06:34:23;;;;;;;6.15;2.45;;;;;;;14.78;85.82;101165.41;1787716;79;21410;-69
2021/05/21 06:36:56;;;;;;;5.92;2.62;;;;;;;14.74;85.82;101162.87;1788957;78;21159;-68
2021/05/21 06:39:29;;;;;;;5.47;2.42;;;;;;;14.69;85.51;101170.42;1722964;82;21167;-68
2021/05/21 06:42:01;;;;;;;3.00;2.05;;;;;;;14.65;85.87;101180.47;1791445;79;21170;-67
2021/05/21 06:44:35;;;;;;;5.45;2.47;;;;;;;14.61;85.68;101179.36;1721454;82;21174;-68
2021/05/21 06:47:08;;;;;;;4.92;2.50;;;;;;;14.52;85.43;101187.43;1791037;79;21364;-68
2021/05/21 06:49:41;;;;;;;6.47;2.47;;;;;;;14.52;85.43;101187.43;1720760;82;21739;-64
2021/05/21 06:52:14;;;;;;;3.87;2.33;;;;;;;14.50;85.29;101187.42;1791542;79;21721;-68
2021/05/21 06:54:47;;;;;;;8.08;2.58;;;;;;;14.45;85.60;101191.58;1791229;79;21338;-67
2021/05/21 06:57:20;;;;;;;8.33;2.50;;;;;;;14.40;85.79;101191.02;1721320;82;21324;-70
2021/05/21 06:59:53;;;;;;;5.60;2.60;;;;;;;14.38;85.52;101196.59;1791295;79;21199;-68
2021/05/21 07:02:29;;;;;;;4.65;2.40;;;;;;;14.35;85.80;101198.55;1720789;82;21332;-70
2021/05/21 07:05:05;;;;;;;8.50;2.42;;;;;;;14.35;86.13;101205.53;1773359;81;21222;-69
2021/05/21 07:07:39;;;;;;;6.97;2.70;;;;;;;14.32;86.10;101201.33;1773656;81;21313;-68
2021/05/21 07:10:12;;;;;;;6.50;3.15;;;;;;;14.29;86.10;101207.45;1737068;82;21328;-69
2021/05/21 07:12:45;;;;;;;6.90;2.98;;;;;;;14.30;85.96;101202.72;1773896;81;21218;-71
2021/05/21 07:15:19;;;;;;;5.08;3.05;;;;;;;14.28;85.95;101209.11;1739244;82;21339;-68
2021/05/21 07:17:51;;;;;;;;;;;;;;;14.26;86.05;101215.53;1710138;84;21746;-69
2021/05/21 07:20:24;;;;;;;5.20;2.85;;;;;;;14.26;86.66;101214.98;1730103;83;20191;-70
2021/05/21 07:22:56;;;;;;;8.65;3.27;;;;;;;14.27;86.68;101222.80;1745183;82;21178;-69
2021/05/21 07:25:29;;;;;;;10.70;2.57;;;;;;;14.27;86.68;101222.80;1745097;82;21201;-69
2021/05/21 07:28:02;;;;;;;6.22;2.50;;;;;;;14.30;86.88;101225.06;1744777;82;21448;-68
2021/05/21 07:30:34;;;;;;;6.60;2.20;;;;;;;14.35;87.26;101225.91;1707897;84;21205;-69
2021/05/21 07:33:07;;;;;;;4.80;2.43;;;;;;;14.35;87.26;101225.91;1745185;82;21739;-67
2021/05/21 07:35:40;;;;;;;5.33;2.62;;;;;;;14.36;86.93;101232.35;1707769;84;21335;-68
2021/05/21 07:38:13;;;;;;;5.20;2.20;;;;;;;14.38;86.79;101232.37;1745044;81;21324;-71
2021/05/21 07:40:45;;;;;;;8.35;3.10;;;;;;;14.40;87.23;101232.92;1744830;81;21347;-69
2021/05/21 07:43:18;;;;;;;10.08;3.10;;;;;;;14.43;86.94;101232.36;1707746;84;21343;-69
2021/05/21 07:45:50;;;;;;;7.83;3.60;;;;;;;14.47;87.35;101236.31;1745058;82;21340;-69
2021/05/21 07:48:26;;;;;;;5.62;3.15;;;;;;;14.50;87.52;101238.58;1744795;81;21324;-69
2021/05/21 07:50:58;;;;;;;10.55;3.98;;;;;;;14.60;87.72;101235.80;1744665;81;21209;-67
2021/05/21 07:53:33;;;;;;;4.70;2.85;;;;;;;14.60;87.72;101235.80;1707665;84;21315;-67
2021/05/21 07:56:06;;;;;;;5.17;3.25;;;;;;;14.75;87.30;101247.05;1745038;81;21205;-68
2021/05/21 07:58:38;;;;;;;;;;;;;;;14.75;87.30;101247.05;1710461;84;21356;-68
2021/05/21 08:01:11;;;;;;;7.15;3.62;;;;;;;14.81;87.26;101247.90;1730169;83;20254;-68
2021/05/21 08:03:43;;;;;;;6.03;2.92;;;;;;;14.82;87.19;101254.62;1744753;82;21327;-68
2021/05/21 08:06:16;;;;;;;5.55;3.00;;;;;;;14.85;87.14;101248.46;1744796;82;21253;-68
2021/05/21 08:08:50;;;;;;;5.97;3.40;;;;;;;14.92;87.28;101257.42;1707550;84;21209;-67
2021/05/21 08:11:23;;;;;;;6.40;3.67;;;;;;;15.05;87.12;101257.47;1744860;81;21328;-67
2021/05/21 08:13:58;;;;;;;5.78;4.03;;;;;;;15.05;87.12;101257.47;1707958;84;21264;-67
2021/05/21 08:16:31;;;;;;;7.85;3.47;;;;;;;15.12;86.35;101254.70;1742371;82;21194;-69
2021/05/21 08:19:04;;;;;;;5.90;3.50;;;;;;;15.23;85.89;101268.14;1774203;81;21731;-69
2021/05/21 08:21:36;;;;;;;;;;;;;;;15.32;85.42;101256.16;1739465;82;21242;-69
2021/05/21 08:24:10;;;;;;;6.80;3.67;;;;;;;15.40;84.96;101257.58;1736891;82;20219;-68
2021/05/21 08:26:43;;;;;;;9.85;4.28;;;;;;;15.45;84.46;101264.00;1773802;81;21294;-69
2021/05/21 08:29:16;;;;;;;;;;;;;;;15.53;84.36;101262.62;1739356;82;21637;-69
2021/05/21 08:31:49;;;;;;;7.17;2.98;;;;;;;15.63;84.45;101265.44;1723488;83;20186;-69
2021/05/21 08:34:21;;;;;;;12.98;4.33;;;;;;;15.69;83.68;101273.53;1773731;81;21206;-68
2021/05/21 08:36:55;;;;;;;9.33;3.60;;;;;;;15.73;83.53;101284.47;1737103;81;21167;-69
2021/05/21 08:39:27;;;;;;;4.45;3.15;;;;;;;15.80;82.16;101291.17;1774054;81;21372;-69
2021/05/21 08:42:00;;;;;;;5.60;2.83;;;;;;;15.80;82.16;101291.17;1736998;81;21825;-68
2021/05/21 08:44:33;;;;;;;9.30;4.60;;;;;;;15.83;80.91;101295.64;1774058;81;21186;-68
2021/05/21 08:47:06;;;;;;;10.00;4.28;;;;;;;15.82;81.43;101298.17;1737093;82;21501;-68
2021/05/21 08:49:40;;;;;;;8.18;4.03;;;;;;;15.85;82.19;101300.43;1774069;80;21823;-66
2021/05/21 08:52:13;;;;;;;5.22;3.35;;;;;;;15.86;82.63;101302.11;1737238;82;21309;-69
2021/05/21 08:54:46;;;;;;;6.10;2.80;;;;;;;15.87;83.49;101310.78;1774145;79;21246;-69
2021/05/21 08:57:21;;;;;;;7.58;3.00;;;;;;;15.88;83.98;101306.86;1736959;81;21205;-68
2021/05/21 08:59:54;;;;;;;4.25;2.55;;;;;;;15.88;84.53;101308.26;1774011;81;21233;-68
2021/05/21 09:02:29;;;;;;;4.73;2.50;;;;;;;15.91;84.70;101302.11;1737229;82;21336;-68
2021/05/21 09:05:01;;;;;;;;;;;;;;;16.01;84.83;101303.48;1776476;81;21497;-67
2021/05/21 09:07:40;;;;;;;9.70;5.42;;;;;;;16.11;84.94;101303.48;1773978;80;20174;-70
2021/05/21 09:10:22;;;;;;;10.18;5.03;;;;;;;16.20;84.32;101310.19;1773797;81;21333;-68
2021/05/21 09:12:55;;;;;;;8.35;4.58;;;;;;;16.30;84.21;101296.16;1773812;81;21183;-68
2021/05/21 09:15:28;;;;;;;5.95;3.83;;;;;;;16.45;84.83;101292.80;1736903;82;21493;-68
2021/05/21 09:18:02;;;;;;;;;;;;;;;16.61;84.14;101300.05;1780330;80;21178;-68
2021/05/21 09:20:39;;;;;;;7.17;3.60;;;;;;;16.74;82.86;101299.98;1782039;79;20186;-69
2021/05/21 09:23:15;;;;;;;8.50;4.40;;;;;;;16.81;82.27;101298.56;1744864;82;21162;-69
2021/05/21 09:25:51;;;;;;;9.60;6.45;;;;;;;16.96;82.83;101287.25;1715215;83;21355;-69
2021/05/21 09:28:37;;;;;;;5.03;3.40;;;;;;;17.12;82.31;101292.25;1744686;81;21170;-69
2021/05/21 09:31:18;;;;;;;5.90;2.90;;;;;;;17.17;81.32;101290.80;1707713;83;21423;-68
2021/05/21 09:33:53;;;;;;;23.50;4.55;;;;;;;17.20;81.34;101293.05;1744865;82;21220;-68
2021/05/21 09:36:35;;;;;;;5.00;3.30;;;;;;;17.24;81.56;101296.38;1707540;83;21186;-69
2021/05/21 09:39:12;;;;;;;7.65;4.03;;;;;;;17.30;80.91;101291.55;1744631;81;21228;-68
2021/05/21 09:41:57;;;;;;;8.65;3.02;;;;;;;17.35;80.41;101290.13;1703965;84;21407;-68
2021/05/21 09:44:34;;;;;;;11.60;8.40;;;;;;;17.40;80.55;101289.58;1744891;81;21240;-69
2021/05/21 09:47:09;;;;;;;8.13;4.70;;;;;;;17.51;80.73;101284.17;1707388;84;21205;-69
2021/05/21 09:49:41;;;;;;;4.85;3.40;;;;;;;17.66;80.13;101274.77;1744469;82;21320;-70
2021/05/21 09:52:17;;;;;;;7.87;4.62;;;;;;;17.76;79.51;101279.76;1707670;84;21268;-74
2021/05/21 09:54:55;;;;;;;6.00;3.52;;;;;;;17.92;79.45;101276.25;1744598;82;21354;-69
2021/05/21 09:57:35;;;;;;;4.92;3.40;;;;;;;18.06;79.36;101268.80;1744744;82;21185;-69
2021/05/21 10:00:10;;;;;;;10.08;4.45;;;;;;;18.17;78.31;101280.22;1707511;84;21244;-70
2021/05/21 10:02:43;;;;;;;4.17;2.90;;;;;;;18.26;77.64;101275.61;1744718;82;21336;-68
2021/05/21 10:05:15;;;;;;;5.62;3.87;;;;;;;18.29;77.13;101274.45;1744718;82;21213;-69
2021/05/21 10:07:48;;;;;;;11.45;6.30;;;;;;;18.33;76.73;101280.34;1707532;84;21205;-69
2021/05/21 10:10:25;;;;;;;8.53;4.40;;;;;;;18.30;77.06;101283.73;1716533;82;21328;-68
2021/05/21 10:12:57;;;;;;;8.23;2.95;;;;;;;18.27;77.02;101275.88;1729070;82;21503;-68
2021/05/21 10:15:29;;;;;;;8.25;3.67;;;;;;;18.22;76.14;101268.93;1738639;82;21193;-70
2021/05/21 10:18:01;;;;;;;3.92;2.95;;;;;;;18.14;75.90;101269.55;1714406;83;21320;-67
2021/05/21 10:20:33;;;;;;;7.03;2.92;;;;;;;18.15;75.96;101279.66;1737113;81;21716;-70
2021/05/21 10:23:06;;;;;;;5.08;3.10;;;;;;;18.15;75.83;101273.48;1744851;82;21221;-70
2021/05/21 10:25:38;;;;;;;7.30;3.60;;;;;;;18.17;75.86;101274.59;1728769;83;21339;-71
2021/05/21 10:28:09;;;;;;;8.00;3.00;;;;;;;18.25;75.72;101266.91;1736793;81;21841;-70
2021/05/21 10:30:41;;;;;;;7.40;3.42;;;;;;;18.31;73.79;101265.76;1736526;82;21722;-69
2021/05/21 10:33:22;;;;;;;13.65;3.20;;;;;;;18.40;71.76;101277.47;1708038;82;21212;-70
2021/05/21 10:36:26;;;;;;;6.55;3.67;;;;;;;18.46;71.18;101266.42;1755102;81;21280;-70
2021/05/21 10:39:20;;;;;;;;;;;;;;;18.54;69.70;101268.57;1762236;81;21206;-70
2021/05/21 10:42:21;;;;;;;4.47;2.67;;;;;;;18.55;69.99;101264.65;1760000;80;20259;-73
2021/05/21 10:45:07;;;;;;;8.78;2.72;;;;;;;18.58;70.38;101266.84;1758971;81;21316;-70
2021/05/21 10:47:41;;;;;;;7.85;2.42;;;;;;;18.65;71.32;101265.91;1741765;81;21265;-70
2021/05/21 10:50:18;;;;;;;2.10;1.90;;;;;;;18.79;71.66;101255.62;1759730;81;21245;-71
2021/05/21 10:53:05;;;;;;;8.03;2.80;;;;;;;18.95;71.75;101257.67;1759728;81;21202;-71
2021/05/21 10:55:47;;;;;;;3.33;2.02;;;;;;;19.11;71.82;101259.11;1759593;81;21332;-71
2021/05/21 10:58:43;;;;;;;6.70;1.85;;;;;;;19.26;71.20;101253.31;1753647;81;21183;-67
2021/05/21 11:01:18;;;;;;;3.37;2.10;;;;;;;19.41;69.34;101254.48;1747484;81;21199;-73
2021/05/21 11:04:03;;;;;;;2.30;1.80;;;;;;;19.48;66.10;101249.29;1739953;81;21172;-70
2021/05/21 11:06:51;;;;;;;3.15;1.90;;;;;;;19.44;63.82;101256.11;1743463;81;21349;-74
2021/05/21 11:09:29;;;;;;;2.95;1.92;;;;;;;19.29;62.73;101257.77;1743263;81;21293;-69
2021/05/21 11:12:08;;;;;;;1.98;1.75;;;;;;;19.12;63.44;101253.74;1749366;81;21449;-70
2021/05/21 11:14:45;;;;;;;2.75;1.87;;;;;;;19.02;64.39;101249.69;1744253;81;21183;-72
2021/05/21 11:17:25;;;;;;;6.30;1.92;;;;;;;18.94;63.59;101254.56;1758249;79;21178;-71
2021/05/21 11:20:03;;;;;;;8.98;2.42;;;;;;;18.87;63.75;101252.69;1744821;81;21745;-70
2021/05/21 11:22:38;;;;;;;4.00;1.95;;;;;;;18.86;64.56;101252.43;1806544;79;21325;-69
2021/05/21 11:25:18;;;;;;;6.58;2.80;;;;;;;18.88;63.93;101250.14;1802060;79;21353;-69
2021/05/21 11:27:51;;;;;;;4.90;2.00;;;;;;;18.94;64.43;101246.12;1798348;79;21320;-70
2021/05/21 11:30:24;;;;;;;9.13;2.15;;;;;;;18.99;64.11;101244.09;1806055;79;21929;-71
2021/05/21 11:32:58;;;;;;;5.45;2.30;;;;;;;19.03;63.17;101245.14;1800754;79;21790;-67
2021/05/21 11:35:30;;;;;;;;;;;;;;;19.06;62.63;101243.14;1805588;79;21182;-68
2021/05/21 11:38:03;;;;;;;11.90;1.87;;;;;;;19.11;60.57;101241.66;1789643;77;20287;-69
2021/05/21 11:40:36;;;;;;;3.52;2.00;;;;;;;19.12;60.84;101243.34;1787874;80;21734;-66
2021/05/21 11:43:09;;;;;;;4.67;1.57;;;;;;;19.21;61.41;101248.56;1801030;79;21359;-66
2021/05/21 11:45:42;;;;;;;2.62;1.40;;;;;;;19.34;60.73;101247.83;1784820;79;21289;-70
2021/05/21 11:48:15;;;;;;;1.57;1.35;;;;;;;19.41;59.29;101251.66;1805379;79;21873;-71
2021/05/21 11:50:47;;;;;;;2.50;1.50;;;;;;;19.43;57.93;101243.73;1804035;79;21309;-71
2021/05/21 11:53:20;;;;;;;5.97;2.15;;;;;;;19.44;58.06;101246.84;1803943;79;21297;-69
2021/05/21 11:55:53;;;;;;;4.28;1.87;;;;;;;19.42;58.21;101249.10;1805920;79;21276;-68
2021/05/21 11:58:28;;;;;;;5.37;2.10;;;;;;;19.39;58.27;101239.87;1800355;79;21712;-71
2021/05/21 12:01:03;;;;;;;5.85;2.75;;;;;;;19.40;58.93;101245.20;1802090;79;21317;-72
2021/05/21 12:03:39;;;;;;;4.20;2.40;;;;;;;19.43;59.37;101245.98;1803045;79;21227;-70
2021/05/21 12:06:12;;;;;;;3.90;2.45;;;;;;;19.47;58.87;101237.76;1803903;79;21170;-69
2021/05/21 12:08:48;;;;;;;;;;;;;;;19.51;59.24;101238.83;1807178;79;21269;-68
2021/05/21 12:11:21;;;;;;;4.95;2.37;;;;;;;19.53;58.89;101234.56;1801436;79;20241;-69
2021/05/21 12:14:07;;;;;;;3.57;1.70;;;;;;;19.59;59.90;101229.11;1804325;79;21423;-68
2021/05/21 12:16:41;;;;;;;2.65;1.70;;;;;;;19.68;59.18;101236.30;1785048;79;21168;-69
2021/05/21 12:19:14;;;;;;;5.50;2.15;;;;;;;19.71;57.36;101244.98;1803755;79;21254;-69
2021/05/21 12:21:49;;;;;;;3.87;1.52;;;;;;;19.69;56.86;101239.38;1800209;79;21395;-69
2021/05/21 12:24:25;;;;;;;3.95;1.82;;;;;;;19.67;55.05;101238.83;1796120;79;21361;-68
2021/05/21 12:26:59;;;;;;;5.58;2.05;;;;;;;19.67;55.72;101245.88;1795596;79;21888;-69
2021/05/21 12:29:31;;;;;;;7.28;2.00;;;;;;;19.70;55.50;101245.27;1801933;79;21328;-72
2021/05/21 12:32:06;;;;;;;2.90;1.50;;;;;;;19.75;54.15;101246.61;1780017;79;21358;-68
2021/05/21 12:34:40;;;;;;;4.10;1.50;;;;;;;19.77;53.05;101242.34;1776461;79;21889;-70
2021/05/21 12:37:12;;;;;;;7.25;1.62;;;;;;;19.79;53.53;101241.45;1801918;79;21859;-67
2021/05/21 12:39:45;;;;;;;7.72;1.75;;;;;;;19.80;51.49;101245.11;1805461;79;21206;-69
2021/05/21 12:42:21;;;;;;;4.00;1.67;;;;;;;19.78;51.22;101242.59;1800598;79;21163;-68
2021/05/21 12:44:54;;;;;;;4.97;1.50;;;;;;;19.77;51.49;101254.17;1808182;79;21316;-70
2021/05/21 12:47:42;;;;;;;4.28;1.50;;;;;;;19.78;51.33;101248.79;1800096;79;21204;-67
2021/05/21 12:50:36;;;;;;;3.90;1.70;;;;;;;19.79;52.30;101240.59;1804247;79;21263;-70
2021/05/21 12:53:08;;;;;;;6.17;2.20;;;;;;;19.83;51.92;101244.48;1796673;79;21435;-70
2021/05/21 12:55:45;;;;;;;5.75;1.72;;;;;;;19.81;51.18;101245.38;1807039;79;21170;-70
2021/05/21 12:58:19;;;;;;;8.10;2.15;;;;;;;19.77;50.70;101252.77;1808435;79;21409;-69
2021/05/21 13:00:52;;;;;;;8.60;2.20;;;;;;;19.74;50.29;101247.16;1797414;79;21203;-69
2021/05/21 13:03:24;;;;;;;4.10;1.85;;;;;;;19.72;50.53;101241.56;1807544;79;21260;-69
2021/05/21 13:05:57;;;;;;;6.30;1.75;;;;;;;19.73;51.29;101252.54;1808001;79;21788;-69
2021/05/21 13:08:30;;;;;;;10.70;1.87;;;;;;;19.75;51.29;101262.11;1779629;79;21332;-69
2021/05/21 13:11:04;;;;;;;13.65;1.70;;;;;;;19.75;52.05;101251.65;1801183;79;21245;-68
2021/05/21 13:13:37;;;;;;;4.45;1.50;;;;;;;19.78;52.35;101256.69;1801083;79;21417;-68
2021/05/21 13:16:10;;;;;;;1.77;1.40;;;;;;;19.78;52.48;101253.02;1803292;79;21239;-68
2021/05/21 13:18:42;;;;;;;7.20;1.30;;;;;;;19.75;51.95;101261.52;1802679;79;21202;-68
2021/05/21 13:21:17;;;;;;;6.37;1.70;;;;;;;19.70;52.55;101253.73;1803751;79;21200;-69
2021/05/21 13:24:08;;;;;;;3.12;1.52;;;;;;;19.65;53.09;101267.90;1797957;79;21311;-70
2021/05/21 13:26:54;;;;;;;4.12;1.45;;;;;;;19.61;52.51;101267.67;1790718;79;21363;-71
2021/05/21 13:29:27;;;;;;;4.53;1.85;;;;;;;19.54;52.72;101267.79;1794887;79;21323;-71
2021/05/21 13:32:00;;;;;;;2.35;1.35;;;;;;;19.45;53.62;101273.86;1783456;79;21350;-71
2021/05/21 13:34:33;;;;;;;7.53;2.15;;;;;;;19.37;54.55;101273.12;1788547;79;21786;-71
2021/05/21 13:37:07;;;;;;;12.30;1.80;;;;;;;19.31;55.22;101263.92;1791283;79;21304;-70
2021/05/21 13:39:41;;;;;;;5.47;1.62;;;;;;;19.30;55.39;101272.11;1797432;79;21339;-73
2021/05/21 13:42:13;;;;;;;2.73;1.67;;;;;;;19.29;54.84;101269.59;1793352;79;21316;-69
2021/05/21 13:44:48;;;;;;;3.33;2.10;;;;;;;19.28;55.31;101277.22;1787897;79;21197;-79
2021/05/21 13:47:21;;;;;;;7.05;2.02;;;;;;;19.28;55.30;101272.14;1792733;79;21253;-74
2021/05/21 13:49:54;;;;;;;5.28;1.47;;;;;;;19.26;54.88;101276.66;1755795;81;21232;-75
2021/05/21 13:52:32;;;;;;;5.83;1.50;;;;;;;19.23;55.19;101275.88;1752467;81;21767;-74
2021/05/21 13:55:05;;;;;;;5.42;1.47;;;;;;;19.22;55.48;101274.77;1727789;82;21662;-72
2021/05/21 13:57:38;;;;;;;2.98;1.65;;;;;;;19.22;56.05;101266.31;1728355;82;21203;-72
2021/05/21 14:00:20;;;;;;;7.40;1.92;;;;;;;19.22;56.76;101262.94;1730379;82;21384;-70
2021/05/21 14:02:52;;;;;;;8.93;2.55;;;;;;;19.21;56.52;101263.23;1734125;80;21347;-84
2021/05/21 14:05:30;;;;;;;7.35;1.60;;;;;;;19.19;56.88;101278.17;1736308;82;21353;-73
2021/05/21 14:08:04;;;;;;;3.45;2.35;;;;;;;19.13;57.45;101270.34;1740265;82;21330;-73
2021/05/21 14:10:38;;;;;;;6.12;1.95;;;;;;;19.07;58.03;101274.37;1733150;82;21342;-79
2021/05/21 14:13:10;;;;;;;4.37;1.87;;;;;;;19.02;58.59;101277.84;1738526;82;21320;-74
2021/05/21 14:15:43;;;;;;;7.33;2.17;;;;;;;18.98;59.22;101279.58;1738367;82;21160;-84
2021/05/21 14:18:15;;;;;;;5.87;2.22;;;;;;;18.94;60.03;101281.30;1725910;82;21373;-73
2021/05/21 14:20:51;;;;;;;6.78;2.50;;;;;;;18.91;60.47;101280.52;1744085;82;21348;-72
2021/05/21 14:23:28;;;;;;;10.25;2.15;;;;;;;18.86;61.08;101283.39;1736149;82;21704;-85
2021/05/21 14:26:04;;;;;;;7.65;2.08;;;;;;;18.81;61.48;101280.63;1759173;80;21431;-81
2021/05/21 14:28:35;;;;;;;5.53;2.40;;;;;;;18.78;61.67;101275.03;1767771;80;21320;-70
2021/05/21 14:31:09;;;;;;;10.63;2.30;;;;;;;18.78;61.59;101282.66;1765954;80;21384;-69
2021/05/21 14:33:47;;;;;;;5.60;2.60;;;;;;;18.77;61.78;101279.58;1765375;80;21336;-69
2021/05/21 14:36:20;;;;;;;5.37;2.30;;;;;;;18.78;61.63;101279.84;1766781;80;21826;-71
2021/05/21 14:38:54;;;;;;;12.00;2.12;;;;;;;18.79;61.53;101280.11;1716238;82;21245;-71
2021/05/21 14:41:27;;;;;;;2.83;2.00;;;;;;;18.79;60.81;101280.11;1765781;80;21170;-70
2021/05/21 14:44:02;;;;;;;5.65;2.27;;;;;;;18.79;60.97;101282.36;1740096;81;21227;-72
2021/05/21 14:46:34;;;;;;;4.10;2.17;;;;;;;18.77;61.31;101284.63;1742057;81;21339;-69
2021/05/21 14:49:07;;;;;;;8.88;3.17;;;;;;;18.73;60.97;101280.75;1754880;81;21613;-74
2021/05/21 14:51:45;;;;;;;10.32;2.70;;;;;;;18.69;61.18;101280.22;1750795;81;21405;-71
2021/05/21 14:54:20;;;;;;;6.90;2.10;;;;;;;18.65;61.44;101281.98;1753171;81;21410;-67
2021/05/21 14:56:53;;;;;;;3.65;1.90;;;;;;;18.61;61.51;101287.37;1751949;80;21328;-72
2021/05/21 14:59:26;;;;;;;2.17;1.70;;;;;;;18.59;61.35;101280.36;1738496;81;21365;-73
2021/05/21 15:02:00;;;;;;;5.83;2.17;;;;;;;18.56;61.34;101290.23;1757025;80;21272;-72
2021/05/21 15:04:36;;;;;;;4.55;2.67;;;;;;;18.55;61.59;101286.30;1736440;81;21406;-72
2021/05/21 15:07:08;;;;;;;7.70;2.33;;;;;;;18.52;61.77;101283.52;1735158;81;22149;-72
2021/05/21 15:09:40;;;;;;;6.37;2.90;;;;;;;18.49;61.62;101285.53;1747429;81;21313;-73